Time;durP1;ratioP1;P1;durP2;ratioP2;P2;SDS_P1;SDS_P2;PMS_P1;PMS_P2;Temp;Humidity;BMP_temperature;BMP_pressure;BME280_temperature;BME280_humidity;BME280_pressure;Samples;Min_cycle;Max_cycle;Signal;HPM_P1;HPM_P2
2023/05/23 00:01:17;;;;;;;4.80;3.10;;;;;;;10.29;82.77;95476.55;106709;1275;24368;-69
2023/05/23 00:03:46;;;;;;;6.80;2.90;;;;;;;10.21;82.39;95477.92;106674;1275;22513;-69
2023/05/23 00:06:20;;;;;;;6.00;3.00;;;;;;;10.17;82.63;95478.16;106764;1275;22890;-69
2023/05/23 00:08:49;;;;;;;3.20;2.80;;;;;;;10.20;82.89;95474.06;106766;1275;23005;-69
2023/05/23 00:11:19;;;;;;;5.60;3.40;;;;;;;10.12;82.89;95474.21;106741;1275;22523;-69
2023/05/23 00:13:47;;;;;;;5.70;3.50;;;;;;;10.07;83.56;95476.59;106756;1275;22513;-69
2023/05/23 00:16:15;;;;;;;8.30;4.10;;;;;;;10.13;83.59;95475.77;106672;1275;25466;-69
2023/05/23 00:18:44;;;;;;;6.70;4.50;;;;;;;10.10;82.67;95474.95;106742;1275;24419;-69
2023/05/23 00:21:13;;;;;;;6.50;3.80;;;;;;;10.01;82.82;95478.98;106775;1275;25368;-69
2023/05/23 00:23:41;;;;;;;4.60;3.50;;;;;;;9.99;83.02;95474.80;106737;1275;25484;-70
2023/05/23 00:26:10;;;;;;;5.70;3.30;;;;;;;9.85;83.03;95476.28;106714;1275;22837;-69
2023/05/23 00:28:40;;;;;;;7.00;3.60;;;;;;;9.78;84.08;95481.86;106785;1275;22526;-69
2023/05/23 00:31:08;;;;;;;7.30;3.60;;;;;;;9.63;83.98;95481.94;106779;1275;24381;-69
2023/05/23 00:33:37;;;;;;;6.40;3.50;;;;;;;9.50;84.15;95483.19;106691;1275;25211;-69
2023/05/23 00:36:05;;;;;;;4.30;3.90;;;;;;;9.43;84.46;95483.48;106708;1275;23946;-69
2023/05/23 00:38:33;;;;;;;5.40;3.60;;;;;;;9.42;84.47;95480.34;106689;1275;24445;-69
2023/05/23 00:41:02;;;;;;;7.10;3.50;;;;;;;9.49;84.59;95478.30;106623;1275;24345;-69
2023/05/23 00:43:30;;;;;;;4.10;3.20;;;;;;;9.54;84.39;95477.16;106599;1275;22524;-68
2023/05/23 00:45:59;;;;;;;8.60;4.00;;;;;;;9.57;84.54;95469.55;106799;1275;22978;-68
2023/05/23 00:48:28;;;;;;;5.90;4.40;;;;;;;9.55;84.76;95465.90;106823;1275;25337;-69
2023/05/23 00:50:57;;;;;;;8.50;4.30;;;;;;;9.54;84.66;95466.80;106788;1275;24221;-69
2023/05/23 00:53:25;;;;;;;6.50;4.10;;;;;;;9.50;84.61;95470.03;106795;1275;25237;-68
2023/05/23 00:55:54;;;;;;;8.30;5.00;;;;;;;9.43;84.82;95466.97;106618;1275;24481;-69
2023/05/23 00:58:23;;;;;;;5.40;4.10;;;;;;;9.38;85.32;95464.60;106945;1275;23488;-69
2023/05/23 01:00:53;;;;;;;5.10;3.90;;;;;;;9.29;85.10;95463.52;107100;1275;22521;-69
2023/05/23 01:03:22;;;;;;;7.40;4.00;;;;;;;9.27;85.30;95468.13;106971;1275;22514;-69
2023/05/23 01:05:51;;;;;;;4.30;3.20;;;;;;;9.30;84.97;95468.59;106693;1275;25330;-69
2023/05/23 01:08:20;;;;;;;7.40;3.80;;;;;;;9.33;85.22;95469.40;106738;1275;25297;-69
2023/05/23 01:10:49;;;;;;;5.70;3.80;;;;;;;9.31;85.26;95475.59;106664;1275;25075;-69
2023/05/23 01:13:17;;;;;;;6.40;4.20;;;;;;;9.30;85.19;95474.21;106862;1263;24228;-69
2023/05/23 01:15:48;;;;;;;4.90;3.60;;;;;;;9.26;85.24;95473.73;106618;1275;25322;-69
2023/05/23 01:18:31;;;;;;;4.40;3.20;;;;;;;9.27;84.98;95470.59;106760;1275;24193;-69
2023/05/23 01:21:11;;;;;;;5.20;3.40;;;;;;;9.22;85.55;95477.83;106667;1275;22570;-69
2023/05/23 01:24:02;;;;;;;5.70;3.50;;;;;;;9.20;85.42;95477.52;106695;1275;22606;-69
2023/05/23 01:26:59;;;;;;;6.40;3.60;;;;;;;9.13;84.78;95480.77;107054;1275;22771;-69
2023/05/23 01:29:35;;;;;;;4.30;3.20;;;;;;;9.04;85.52;95483.37;106199;1275;683844;-69
2023/05/23 01:32:08;;;;;;;6.80;3.30;;;;;;;9.02;85.65;95482.86;106697;1275;25277;-69
2023/05/23 01:34:38;;;;;;;5.60;3.00;;;;;;;9.06;85.32;95488.08;106725;1275;24717;-69
2023/05/23 01:37:13;;;;;;;6.10;3.30;;;;;;;9.13;85.43;95483.58;106751;1275;22516;-69
2023/05/23 01:39:41;;;;;;;4.20;2.80;;;;;;;9.18;85.11;95483.52;106747;1275;25347;-69
2023/05/23 01:42:09;;;;;;;4.90;3.30;;;;;;;9.16;84.88;95479.52;106789;1275;22640;-69
2023/05/23 01:44:38;;;;;;;4.30;3.30;;;;;;;9.16;84.73;95478.81;106541;1275;22563;-69
2023/05/23 01:47:09;;;;;;;3.40;2.80;;;;;;;9.19;85.17;95479.83;106689;1275;24480;-69
2023/05/23 01:49:39;;;;;;;6.70;3.10;;;;;;;9.24;85.10;95479.05;106731;1275;22524;-69
2023/05/23 01:52:10;;;;;;;3.90;2.90;;;;;;;9.31;85.39;95474.55;106687;1275;22517;-69
2023/05/23 01:54:41;;;;;;;5.10;2.90;;;;;;;9.32;85.40;95476.81;106946;1275;25258;-69
2023/05/23 01:57:12;;;;;;;12.30;3.90;;;;;;;9.23;85.23;95474.66;106778;1275;22520;-69
2023/05/23 01:59:40;;;;;;;4.70;3.20;;;;;;;9.18;85.00;95473.00;106624;1275;24320;-69
2023/05/23 02:02:10;;;;;;;6.10;3.20;;;;;;;9.18;85.09;95468.95;106724;1262;22732;-69
2023/05/23 02:04:38;;;;;;;3.80;3.00;;;;;;;9.20;84.90;95460.68;106651;1275;22778;-69
2023/05/23 02:07:06;;;;;;;7.00;2.80;;;;;;;9.14;85.08;95457.09;106644;1275;22528;-69
2023/05/23 02:09:34;;;;;;;5.70;3.40;;;;;;;9.13;85.32;95458.14;106777;1275;25343;-70
2023/05/23 02:12:02;;;;;;;3.70;3.20;;;;;;;9.12;84.92;95457.98;106745;1275;22612;-69
2023/05/23 02:14:30;;;;;;;3.80;3.20;;;;;;;9.13;84.77;95459.37;106674;1263;24471;-69
2023/05/23 02:16:59;;;;;;;5.10;3.60;;;;;;;9.04;84.42;95460.04;106816;1275;24371;-69
2023/05/23 02:19:27;;;;;;;8.50;4.50;;;;;;;9.02;85.19;95460.77;106768;1253;24199;-69
2023/05/23 02:21:56;;;;;;;6.90;3.60;;;;;;;9.08;85.63;95461.02;106705;1275;25386;-69
2023/05/23 02:24:24;;;;;;;5.50;3.00;;;;;;;9.10;86.00;95460.81;106728;1275;24269;-70
2023/05/23 02:26:53;;;;;;;6.10;3.80;;;;;;;9.06;85.54;95464.40;106752;1275;22635;-69
2023/05/23 02:29:21;;;;;;;4.70;3.50;;;;;;;8.96;84.69;95468.23;106605;1275;22582;-69
2023/05/23 02:31:49;;;;;;;5.00;3.20;;;;;;;8.87;84.69;95466.95;106691;1275;22785;-69
2023/05/23 02:34:18;;;;;;;6.90;3.30;;;;;;;8.89;84.99;95461.13;106743;1275;25342;-70
2023/05/23 02:36:46;;;;;;;6.90;3.30;;;;;;;8.91;84.59;95461.98;106627;1275;22633;-69
2023/05/23 02:39:14;;;;;;;4.70;2.90;;;;;;;8.88;84.57;95458.68;106666;1275;22524;-70
2023/05/23 02:41:42;;;;;;;3.50;3.20;;;;;;;8.83;85.11;95454.55;106743;1275;24655;-70
2023/05/23 02:44:10;;;;;;;6.60;3.60;;;;;;;8.80;86.42;95455.65;106843;1275;23295;-70
2023/05/23 02:46:38;;;;;;;3.50;3.00;;;;;;;8.81;86.45;95455.63;106687;1275;24394;-70
2023/05/23 02:49:07;;;;;;;4.70;3.80;;;;;;;8.78;86.03;95457.95;106668;1275;22530;-69
2023/05/23 02:51:35;;;;;;;7.00;4.80;;;;;;;8.78;85.92;95459.88;106815;1275;22520;-69
2023/05/23 02:54:03;;;;;;;8.70;5.70;;;;;;;8.81;86.03;95458.61;106638;1273;24542;-70
2023/05/23 02:56:34;;;;;;;5.30;2.80;;;;;;;8.80;85.25;95457.21;106606;1275;24340;-69
2023/05/23 02:59:02;;;;;;;6.30;3.20;;;;;;;8.79;85.32;95452.50;106796;1275;22759;-70
2023/05/23 03:01:30;;;;;;;4.90;2.70;;;;;;;8.77;85.68;95455.86;106724;1275;25392;-70
2023/05/23 03:03:59;;;;;;;3.40;2.80;;;;;;;8.74;86.52;95454.84;106514;1275;22682;-70
2023/05/23 03:06:27;;;;;;;5.90;3.70;;;;;;;8.80;87.23;95453.36;106730;1275;24367;-70
2023/05/23 03:08:55;;;;;;;6.70;3.40;;;;;;;8.95;87.16;95449.11;106621;1275;22520;-70
2023/05/23 03:11:24;;;;;;;6.40;4.00;;;;;;;9.02;86.95;95449.89;106646;1275;24687;-69
2023/05/23 03:13:52;;;;;;;8.70;4.10;;;;;;;9.13;86.62;95448.67;106819;1275;25591;-70
2023/05/23 03:16:22;;;;;;;6.00;4.10;;;;;;;9.24;86.33;95445.70;106686;1275;24438;-69
2023/05/23 03:18:51;;;;;;;6.40;3.50;;;;;;;9.38;85.79;95444.95;106775;1275;22543;-70
2023/05/23 03:21:19;;;;;;;4.70;3.10;;;;;;;9.44;85.25;95438.87;106691;1275;22925;-69
2023/05/23 03:23:47;;;;;;;6.70;3.10;;;;;;;9.48;85.21;95438.10;106668;1275;24095;-70
2023/05/23 03:26:16;;;;;;;4.30;2.70;;;;;;;9.50;85.46;95441.24;106832;1275;22515;-70
2023/05/23 03:28:44;;;;;;;5.40;4.20;;;;;;;9.46;85.28;95440.42;106746;1275;25436;-69
2023/05/23 03:31:12;;;;;;;4.00;3.50;;;;;;;9.46;84.98;95440.95;106730;1274;22511;-70
2023/05/23 03:33:40;;;;;;;6.10;3.90;;;;;;;9.47;84.75;95438.83;106704;1275;22520;-70
2023/05/23 03:36:08;;;;;;;26.40;11.10;;;;;;;9.43;84.14;95445.21;106708;1275;24059;-70
2023/05/23 03:38:36;;;;;;;29.90;11.30;;;;;;;9.37;84.73;95444.96;106612;1275;25274;-69
2023/05/23 03:41:05;;;;;;;43.60;17.40;;;;;;;9.40;85.31;95440.70;106716;1275;22531;-70
2023/05/23 03:43:33;;;;;;;42.90;15.60;;;;;;;9.45;85.53;95440.98;106846;1275;22520;-69
2023/05/23 03:46:01;;;;;;;22.20;9.80;;;;;;;9.43;85.82;95437.48;106616;1275;22514;-69
2023/05/23 03:48:30;;;;;;;8.20;3.90;;;;;;;9.41;85.63;95437.34;106801;1275;22528;-70
2023/05/23 03:50:58;;;;;;;9.50;4.90;;;;;;;9.43;86.30;95435.90;106629;1275;24270;-69
2023/05/23 03:53:26;;;;;;;12.90;5.60;;;;;;;9.45;86.30;95433.23;106662;1275;25329;-69
2023/05/23 03:55:56;;;;;;;15.10;7.60;;;;;;;9.47;86.10;95432.15;106717;1275;25386;-69
2023/05/23 03:58:24;;;;;;;14.60;7.60;;;;;;;9.49;85.90;95433.35;106753;1253;25484;-69
2023/05/23 04:00:55;;;;;;;12.60;7.20;;;;;;;9.50;85.82;95431.23;106683;1275;22530;-69
2023/05/23 04:03:24;;;;;;;13.10;7.30;;;;;;;9.53;85.88;95426.79;106768;1275;25463;-69
2023/05/23 04:05:53;;;;;;;14.90;8.10;;;;;;;9.58;85.99;95430.40;106666;1275;22660;-69
2023/05/23 04:08:21;;;;;;;15.40;7.10;;;;;;;9.63;85.88;95431.36;106665;1275;22622;-69
2023/05/23 04:10:51;;;;;;;10.70;7.20;;;;;;;9.68;85.66;95433.20;106848;1275;25210;-69
2023/05/23 04:13:20;;;;;;;10.60;8.10;;;;;;;9.70;85.89;95435.59;106621;1275;22570;-69
2023/05/23 04:15:50;;;;;;;12.70;8.10;;;;;;;9.77;85.89;95436.55;106812;1263;24270;-69
2023/05/23 04:18:20;;;;;;;15.00;11.10;;;;;;;9.82;85.85;95436.27;106702;1275;22646;-70
2023/05/23 04:20:49;;;;;;;20.40;12.70;;;;;;;9.86;86.25;95436.55;106636;1275;22568;-69
2023/05/23 04:23:17;;;;;;;12.30;10.10;;;;;;;9.95;86.86;95438.68;106705;1275;24381;-70
2023/05/23 04:25:47;;;;;;;10.10;7.90;;;;;;;10.04;87.22;95436.23;106730;1275;25252;-69
2023/05/23 04:28:22;;;;;;;12.90;10.60;;;;;;;10.13;87.58;95438.16;106751;1275;22517;-70
2023/05/23 04:30:50;;;;;;;10.50;7.40;;;;;;;10.24;87.56;95433.02;106728;1275;22798;-69
2023/05/23 04:33:21;;;;;;;10.50;7.80;;;;;;;10.38;87.94;95438.75;106642;1275;25219;-69
2023/05/23 04:35:50;;;;;;;11.20;6.90;;;;;;;10.51;88.18;95435.86;106779;1275;22590;-70
2023/05/23 04:38:20;;;;;;;8.10;6.20;;;;;;;10.65;88.03;95433.97;106873;1275;23169;-70
2023/05/23 04:40:51;;;;;;;7.90;5.50;;;;;;;10.82;87.97;95428.85;106866;1275;22502;-69
2023/05/23 04:43:41;;;;;;;7.70;5.10;;;;;;;11.04;87.71;95427.66;106886;1275;22512;-70
2023/05/23 04:46:20;;;;;;;11.00;5.40;;;;;;;11.18;86.71;95426.45;106814;1275;22510;-70
2023/05/23 04:48:55;;;;;;;8.10;5.30;;;;;;;11.34;86.84;95426.95;106666;1273;22520;-70
2023/05/23 04:51:23;;;;;;;6.90;4.80;;;;;;;11.51;86.75;95424.06;106888;1275;22595;-69
2023/05/23 04:53:56;;;;;;;9.30;4.50;;;;;;;11.61;85.90;95425.73;106788;1275;25281;-69
2023/05/23 04:56:26;;;;;;;6.30;4.20;;;;;;;11.73;86.09;95423.50;106700;1275;23035;-69
2023/05/23 04:58:55;;;;;;;5.80;4.40;;;;;;;11.92;86.18;95418.09;106789;1274;24220;-69
2023/05/23 05:01:25;;;;;;;8.40;4.40;;;;;;;12.09;85.70;95416.94;107085;1263;24398;-70
2023/05/23 05:03:53;;;;;;;7.40;4.40;;;;;;;12.28;85.64;95414.30;106873;1275;22752;-69
2023/05/23 05:06:22;;;;;;;5.80;4.20;;;;;;;12.39;84.50;95411.52;106640;1275;23680;-70
2023/05/23 05:08:51;;;;;;;6.80;4.40;;;;;;;12.51;84.53;95408.70;106789;1275;25378;-69
2023/05/23 05:11:21;;;;;;;11.80;5.10;;;;;;;12.64;83.74;95407.63;106636;1275;22614;-69
2023/05/23 05:13:49;;;;;;;5.00;3.90;;;;;;;12.79;83.81;95406.11;106674;1275;22505;-69
2023/05/23 05:16:17;;;;;;;8.60;4.00;;;;;;;12.98;83.55;95405.71;106651;1275;22568;-69
2023/05/23 05:18:46;;;;;;;5.90;3.80;;;;;;;13.07;82.91;95405.95;106643;1275;24320;-69
2023/05/23 05:21:14;;;;;;;5.30;3.50;;;;;;;13.21;82.62;95404.09;106885;1275;22902;-69
2023/05/23 05:23:43;;;;;;;7.20;3.30;;;;;;;13.30;82.36;95401.73;106562;1275;24346;-70
2023/05/23 05:26:12;;;;;;;4.30;3.40;;;;;;;13.44;82.32;95400.40;107088;1275;22534;-69
2023/05/23 05:28:40;;;;;;;4.20;3.20;;;;;;;13.60;82.09;95402.52;106991;1275;22520;-69
2023/05/23 05:31:13;;;;;;;4.60;3.70;;;;;;;13.75;81.68;95404.14;106999;1275;25270;-69
2023/05/23 05:33:44;;;;;;;3.50;3.20;;;;;;;13.85;80.99;95405.39;106767;1275;25944;-67
2023/05/23 05:36:16;;;;;;;5.90;3.40;;;;;;;13.97;80.83;95409.38;106690;1275;25535;-68
2023/05/23 05:38:45;;;;;;;4.50;3.10;;;;;;;14.07;80.12;95411.34;106742;1275;22527;-69
2023/05/23 05:41:13;;;;;;;3.70;3.10;;;;;;;14.11;79.14;95406.44;106732;1275;22516;-69
2023/05/23 05:43:48;;;;;;;5.60;2.90;;;;;;;14.14;78.41;95404.00;106712;1275;24238;-68
2023/05/23 05:46:16;;;;;;;4.60;3.30;;;;;;;14.23;77.93;95402.28;106675;1275;24387;-69
2023/05/23 05:48:46;;;;;;;5.50;3.30;;;;;;;14.34;76.97;95400.46;106830;1275;22519;-69
2023/05/23 05:51:15;;;;;;;4.50;2.90;;;;;;;14.45;76.43;95397.42;107018;1275;23188;-69
2023/05/23 05:53:43;;;;;;;4.00;3.10;;;;;;;14.59;76.43;95391.08;106676;1275;24335;-69
2023/05/23 05:56:12;;;;;;;6.10;3.10;;;;;;;14.75;75.19;95391.54;106617;1275;25453;-69
2023/05/23 05:58:40;;;;;;;5.20;3.50;;;;;;;14.88;75.17;95399.00;106635;1275;22778;-68
2023/05/23 06:01:11;;;;;;;8.80;3.90;;;;;;;15.02;75.51;95391.39;107089;1275;22520;-69
2023/05/23 06:03:40;;;;;;;5.60;4.00;;;;;;;15.15;75.37;95390.51;106938;1275;24259;-69
2023/05/23 06:06:09;;;;;;;9.40;6.00;;;;;;;15.30;75.02;95392.40;106998;1275;23567;-69
2023/05/23 06:08:38;;;;;;;7.50;3.80;;;;;;;15.46;74.59;95390.18;106757;1269;22647;-72
2023/05/23 06:11:11;;;;;;;7.90;3.80;;;;;;;15.61;74.91;95397.00;106769;1275;22646;-73
2023/05/23 06:13:39;;;;;;;5.80;3.60;;;;;;;15.76;74.88;95391.59;106501;1275;24366;-68
2023/05/23 06:16:08;;;;;;;3.80;3.10;;;;;;;15.92;74.84;95390.55;108214;1275;22520;-69
2023/05/23 06:18:36;;;;;;;13.90;3.70;;;;;;;16.08;74.40;95388.98;106871;1275;25664;-73
2023/05/23 06:21:05;;;;;;;10.90;3.80;;;;;;;16.23;73.98;95391.02;106956;1272;23968;-68
2023/05/23 06:23:34;;;;;;;11.40;3.80;;;;;;;16.37;73.61;95387.18;106993;1275;25468;-70
2023/05/23 06:26:02;;;;;;;6.30;3.40;;;;;;;16.49;73.39;95390.91;106746;1275;22504;-70
2023/05/23 06:28:31;;;;;;;9.80;3.10;;;;;;;16.61;73.16;95390.16;106921;1275;22607;-73
2023/05/23 06:30:59;;;;;;;8.10;3.40;;;;;;;16.73;72.46;95385.05;106953;1275;22618;-70
2023/05/23 06:33:27;;;;;;;11.90;4.00;;;;;;;16.86;72.74;95384.46;107143;1275;24246;-67
2023/05/23 06:35:55;;;;;;;7.00;3.30;;;;;;;17.00;71.25;95386.09;106714;1275;22844;-71
2023/05/23 06:38:26;;;;;;;6.30;3.30;;;;;;;17.16;71.46;95380.58;106755;1275;22595;-68
2023/05/23 06:40:55;;;;;;;8.50;3.60;;;;;;;17.30;70.71;95380.57;106601;1275;25636;-69
2023/05/23 06:43:23;;;;;;;10.30;4.20;;;;;;;17.45;70.74;95384.85;106708;1275;25514;-68
2023/05/23 06:45:53;;;;;;;4.80;4.20;;;;;;;17.57;69.49;95385.48;106908;1275;24221;-67
2023/05/23 06:48:21;;;;;;;5.20;3.50;;;;;;;17.69;69.78;95385.24;106673;1275;25347;-68
2023/05/23 06:50:50;;;;;;;4.10;3.30;;;;;;;17.80;66.80;95382.08;107105;1275;25439;-67
2023/05/23 06:53:19;;;;;;;7.50;3.40;;;;;;;17.91;67.42;95382.07;106988;1275;25325;-68
2023/05/23 06:55:48;;;;;;;6.40;3.60;;;;;;;18.07;67.08;95380.73;106820;1275;25265;-68
2023/05/23 06:58:18;;;;;;;5.10;3.70;;;;;;;18.19;66.15;95381.87;106743;1275;22592;-72
2023/05/23 07:00:46;;;;;;;4.00;3.20;;;;;;;18.28;65.94;95380.31;106690;1275;22595;-68
2023/05/23 07:03:42;;;;;;;4.70;3.40;;;;;;;18.43;65.72;95372.98;106899;1275;24219;-68
2023/05/23 07:06:11;;;;;;;4.20;2.90;;;;;;;18.49;63.05;95367.27;106880;1275;24249;-69
2023/05/23 07:08:39;;;;;;;5.20;3.20;;;;;;;18.58;64.29;95369.65;107231;1275;22521;-68
2023/05/23 07:11:07;;;;;;;6.70;3.30;;;;;;;18.71;64.33;95363.78;106801;1275;22518;-67
2023/05/23 07:13:57;;;;;;;6.10;3.40;;;;;;;18.87;64.72;95364.02;107043;1275;25393;-67
2023/05/23 07:16:34;;;;;;;6.80;3.30;;;;;;;19.03;64.58;95360.65;106983;1275;22557;-67
2023/05/23 07:19:06;;;;;;;5.30;3.40;;;;;;;19.14;62.32;95364.11;106754;1272;22606;-67
2023/05/23 07:21:37;;;;;;;5.80;3.10;;;;;;;19.21;61.76;95359.61;106668;1275;22528;-67
2023/05/23 07:24:05;;;;;;;5.40;3.30;;;;;;;19.33;62.52;95362.88;106654;1275;25204;-68
2023/05/23 07:26:33;;;;;;;3.60;3.30;;;;;;;19.48;62.22;95361.13;106598;1275;22533;-67
2023/05/23 07:29:01;;;;;;;4.00;3.60;;;;;;;19.61;62.28;95356.98;106651;1275;22817;-68
2023/05/23 07:31:30;;;;;;;8.70;4.00;;;;;;;19.76;62.44;95357.42;106826;1275;22632;-67
2023/05/23 07:33:58;;;;;;;6.00;3.60;;;;;;;19.85;60.42;95362.73;106782;1275;23937;-69
2023/05/23 07:36:34;;;;;;;;;;;;;;;19.93;60.75;95361.58;107434;1275;22507;-68
2023/05/23 07:39:03;;;;;;;5.30;3.40;;;;;;;20.03;61.25;95361.52;106850;1275;22517;-68
2023/05/23 07:41:31;;;;;;;6.50;3.40;;;;;;;20.18;60.12;95365.49;106508;1275;24420;-69
2023/05/23 07:43:59;;;;;;;5.60;3.90;;;;;;;20.19;57.87;95362.50;106701;1275;24222;-73
2023/05/23 07:46:27;;;;;;;6.30;3.40;;;;;;;20.29;59.41;95362.27;106646;1275;25401;-68
2023/05/23 07:48:56;;;;;;;5.40;3.50;;;;;;;20.44;59.59;95361.23;106547;1271;24342;-75
2023/05/23 07:51:25;;;;;;;6.50;3.30;;;;;;;20.53;57.97;95357.45;106501;1261;25499;-74
2023/05/23 07:53:53;;;;;;;4.80;3.30;;;;;;;20.65;59.43;95357.27;106584;1269;22523;-77
2023/05/23 07:56:22;;;;;;;6.00;3.40;;;;;;;20.78;59.39;95358.06;106702;1272;24440;-72
2023/05/23 07:58:50;;;;;;;5.10;3.30;;;;;;;20.91;58.66;95355.25;106388;1269;22537;-74
2023/05/23 08:01:19;;;;;;;5.60;3.80;;;;;;;21.03;56.12;95354.02;106311;1275;22761;-74
2023/05/23 08:04:03;;;;;;;6.40;3.50;;;;;;;21.11;57.14;95351.86;106530;1270;24259;-75
2023/05/23 08:06:34;;;;;;;4.80;3.60;;;;;;;21.19;55.26;95347.04;106717;1256;22516;-72
2023/05/23 08:09:06;;;;;;;4.80;3.60;;;;;;;21.24;55.60;95348.17;106594;1275;24368;-80
2023/05/23 08:11:38;;;;;;;5.10;3.30;;;;;;;21.37;56.48;95353.41;107497;1275;25456;-77
2023/05/23 08:14:07;;;;;;;3.90;3.30;;;;;;;21.53;56.77;95355.40;106447;1275;22532;-75
2023/05/23 08:16:38;;;;;;;4.20;3.30;;;;;;;21.68;56.24;95352.12;106548;1275;26606;-75
2023/05/23 08:19:10;;;;;;;4.30;3.20;;;;;;;21.82;55.39;95350.65;106628;1275;24422;-75
2023/05/23 08:21:40;;;;;;;7.30;3.70;;;;;;;21.89;54.31;95349.30;106412;1275;25319;-70
2023/05/23 08:24:08;;;;;;;6.00;3.20;;;;;;;21.97;53.98;95349.83;107729;1275;24468;-81
2023/05/23 08:26:38;;;;;;;3.30;3.00;;;;;;;22.01;51.97;95347.19;106574;1275;22528;-74
2023/05/23 08:29:09;;;;;;;4.80;3.20;;;;;;;22.10;51.95;95345.75;106665;1275;24356;-74
2023/05/23 08:31:38;;;;;;;6.90;4.10;;;;;;;22.23;52.62;95342.19;106634;1275;25217;-73
2023/05/23 08:34:06;;;;;;;3.90;3.00;;;;;;;22.36;51.91;95339.52;106981;1272;22513;-72
2023/05/23 08:36:38;;;;;;;9.60;3.50;;;;;;;22.48;51.15;95334.38;106994;1270;25408;-73
2023/05/23 08:39:08;;;;;;;6.40;3.40;;;;;;;22.59;51.55;95335.26;106879;1275;24126;-69
2023/05/23 08:41:45;;;;;;;3.50;2.90;;;;;;;22.64;50.58;95334.10;106516;1269;25239;-73
2023/05/23 08:44:13;;;;;;;4.90;3.00;;;;;;;22.76;49.80;95330.08;106597;1273;22786;-78
2023/05/23 08:46:52;;;;;;;6.60;3.30;;;;;;;22.80;50.33;95333.19;106473;1267;24040;-73
2023/05/23 08:49:37;;;;;;;8.30;3.20;;;;;;;22.92;51.07;95327.16;106472;1272;22645;-77
2023/05/23 08:52:11;;;;;;;5.80;3.00;;;;;;;23.09;50.53;95329.33;109977;1269;22510;-77
2023/05/23 08:54:41;;;;;;;4.30;3.40;;;;;;;23.19;48.97;95327.52;106441;1275;24224;-76
2023/05/23 08:57:15;;;;;;;6.30;3.40;;;;;;;23.26;48.31;95324.13;107746;1275;25381;-74
2023/05/23 08:59:49;;;;;;;5.70;3.20;;;;;;;23.32;49.34;95322.98;106587;1275;23880;-76
2023/05/23 09:02:17;;;;;;;9.90;3.50;;;;;;;23.51;49.44;95321.58;106452;1275;23011;-75
2023/05/23 09:04:46;;;;;;;4.80;3.20;;;;;;;23.74;49.48;95324.23;106965;1275;24256;-74
2023/05/23 09:07:25;;;;;;;4.20;3.60;;;;;;;23.90;47.85;95326.84;106618;1270;23880;-75
2023/05/23 09:09:53;;;;;;;4.70;3.10;;;;;;;24.00;47.37;95322.84;106535;1275;25400;-74
2023/05/23 09:12:22;;;;;;;6.70;3.30;;;;;;;24.09;46.22;95323.02;106508;1275;25496;-73
2023/05/23 09:14:51;;;;;;;5.30;3.30;;;;;;;24.19;46.68;95323.70;106552;1275;22612;-73
2023/05/23 09:17:21;;;;;;;5.10;3.00;;;;;;;24.34;47.34;95320.54;106777;1275;22520;-74
2023/05/23 09:19:51;;;;;;;4.10;3.20;;;;;;;24.46;46.06;95317.86;106902;1275;23158;-74
2023/05/23 09:22:48;;;;;;;4.60;3.20;;;;;;;24.55;45.88;95320.79;106854;1275;24196;-75
2023/05/23 09:25:18;;;;;;;4.00;3.00;;;;;;;24.74;45.93;95318.36;106762;1275;22520;-75
2023/05/23 09:27:47;;;;;;;6.10;3.40;;;;;;;24.86;45.04;95318.30;106525;1275;24227;-75
2023/05/23 09:30:17;;;;;;;6.40;3.00;;;;;;;24.95;43.66;95314.54;106780;1276;22723;-75
2023/05/23 09:32:58;;;;;;;7.30;3.00;;;;;;;25.06;43.13;95312.96;106800;1275;25217;-75
2023/05/23 09:35:32;;;;;;;3.70;3.10;;;;;;;25.24;43.20;95314.23;107012;1275;25395;-75
2023/05/23 09:38:00;;;;;;;4.00;3.20;;;;;;;25.43;43.67;95308.19;106899;1275;22513;-75
2023/05/23 09:40:30;;;;;;;3.50;3.10;;;;;;;25.64;44.03;95308.09;106960;1275;22525;-76
2023/05/23 09:43:06;;;;;;;4.10;3.30;;;;;;;25.81;42.55;95305.01;106932;1275;22513;-76
2023/05/23 09:45:34;;;;;;;5.80;3.00;;;;;;;25.99;42.88;95305.48;106646;1275;25252;-75
2023/05/23 09:48:03;;;;;;;4.50;3.40;;;;;;;26.21;42.66;95299.87;106661;1275;24263;-76
2023/05/23 09:50:32;;;;;;;5.40;3.40;;;;;;;26.39;41.61;95297.09;106591;1275;22560;-76
2023/05/23 09:53:02;;;;;;;6.70;3.60;;;;;;;26.38;39.89;95297.67;106611;1276;22510;-76
2023/05/23 09:55:30;;;;;;;5.90;3.30;;;;;;;26.51;40.79;95300.69;106611;1275;23144;-75
2023/05/23 09:58:00;;;;;;;3.20;2.40;;;;;;;26.56;40.42;95299.63;106573;1275;22521;-76
2023/05/23 10:00:28;;;;;;;6.00;3.00;;;;;;;26.30;39.85;95303.23;106599;1275;25316;-76
2023/05/23 10:03:13;;;;;;;7.30;3.00;;;;;;;25.69;40.48;95310.67;106577;1275;24426;-76
2023/05/23 10:05:50;;;;;;;8.20;3.10;;;;;;;25.20;41.87;95311.50;106590;1275;24489;-76
2023/05/23 10:08:26;;;;;;;8.90;3.40;;;;;;;24.68;43.28;95314.36;106613;1275;22523;-75
2023/05/23 10:10:55;;;;;;;8.20;3.40;;;;;;;24.05;47.05;95320.79;106577;1275;22650;-74
2023/05/23 10:13:28;;;;;;;6.00;3.70;;;;;;;23.39;50.03;95318.70;106611;1275;24373;-74
2023/05/23 10:16:11;;;;;;;5.10;3.60;;;;;;;22.84;52.68;95321.98;106646;1275;22527;-74
2023/05/23 10:18:43;;;;;;;9.70;3.70;;;;;;;22.33;57.15;95326.82;106610;1275;24240;-74
2023/05/23 10:21:16;;;;;;;5.90;3.20;;;;;;;21.78;55.03;95332.67;106641;1275;22536;-74
2023/05/23 10:23:47;;;;;;;5.60;3.40;;;;;;;21.16;58.07;95343.13;106618;1275;22664;-74
2023/05/23 10:26:16;;;;;;;6.70;3.30;;;;;;;20.51;59.20;95357.91;106553;1275;22576;-74
2023/05/23 10:28:47;;;;;;;4.50;3.10;;;;;;;20.05;57.56;95367.80;106631;1275;24257;-74
2023/05/23 10:31:16;;;;;;;6.30;3.30;;;;;;;19.77;56.97;95377.48;106686;1275;24040;-74
2023/05/23 10:33:55;;;;;;;6.50;2.90;;;;;;;19.49;57.13;95388.05;106686;1275;22642;-74
2023/05/23 10:36:42;;;;;;;5.50;2.80;;;;;;;19.14;58.89;95400.13;106866;1275;24451;-74
2023/05/23 10:39:27;;;;;;;4.60;3.00;;;;;;;18.62;58.81;95400.44;106870;1275;25459;-74
2023/05/23 10:41:59;;;;;;;4.70;2.60;;;;;;;18.17;60.31;95409.36;106578;1275;25746;-74
2023/05/23 10:44:29;;;;;;;5.40;3.00;;;;;;;17.88;60.97;95410.83;106871;1275;22566;-74
2023/05/23 10:47:03;;;;;;;4.40;3.10;;;;;;;17.64;61.31;95415.18;106929;1275;22528;-74
2023/05/23 10:49:42;;;;;;;4.30;2.60;;;;;;;17.44;61.82;95417.42;106689;1275;22754;-74
2023/05/23 10:52:14;;;;;;;4.40;3.00;;;;;;;17.17;63.70;95420.67;106611;1275;25277;-74
2023/05/23 10:54:50;;;;;;;3.80;2.60;;;;;;;16.85;65.11;95421.80;106940;1275;22690;-74
2023/05/23 10:57:22;;;;;;;3.40;2.70;;;;;;;16.66;67.49;95424.79;106623;1275;22523;-74
2023/05/23 10:59:50;;;;;;;3.40;2.50;;;;;;;16.48;65.30;95415.98;106473;1275;22523;-74
2023/05/23 11:02:26;;;;;;;4.40;2.60;;;;;;;16.22;66.95;95416.77;106670;1275;22520;-74
2023/05/23 11:05:23;;;;;;;5.70;3.00;;;;;;;16.05;68.37;95414.35;106626;1275;22514;-74
2023/05/23 11:08:16;;;;;;;5.50;2.80;;;;;;;15.92;71.26;95409.89;106887;1275;23896;-74
2023/05/23 11:10:55;;;;;;;4.20;2.80;;;;;;;15.87;73.22;95412.26;106606;1275;22531;-74
2023/05/23 11:13:23;;;;;;;5.90;3.00;;;;;;;15.91;73.60;95421.65;106684;1275;22778;-74
2023/05/23 11:15:52;;;;;;;5.20;2.80;;;;;;;15.94;73.31;95429.35;106653;1275;22543;-74
2023/05/23 11:18:26;;;;;;;5.10;3.10;;;;;;;15.99;73.86;95424.83;106811;1275;24454;-74
2023/05/23 11:20:57;;;;;;;6.50;2.80;;;;;;;16.04;73.68;95421.11;106643;1275;22523;-74
2023/05/23 11:23:40;;;;;;;3.80;2.50;;;;;;;16.02;74.40;95417.30;106581;1275;22934;-74
2023/05/23 11:26:28;;;;;;;4.10;2.90;;;;;;;16.01;78.17;95416.98;106619;1275;24385;-74
2023/05/23 11:28:58;;;;;;;4.90;3.00;;;;;;;16.13;78.59;95412.92;106602;1275;23875;-75
2023/05/23 11:31:27;;;;;;;6.50;2.40;;;;;;;16.12;76.29;95407.25;106595;1275;22621;-74
2023/05/23 11:33:55;;;;;;;3.20;2.20;;;;;;;16.25;73.85;95404.42;107010;1275;25392;-75
2023/05/23 11:36:23;;;;;;;5.10;2.60;;;;;;;16.33;73.39;95399.27;106688;1275;22537;-75
2023/05/23 11:38:52;;;;;;;5.10;2.50;;;;;;;16.37;71.72;95390.91;106606;1275;22531;-75
2023/05/23 11:41:20;;;;;;;5.70;2.60;;;;;;;16.30;70.31;95382.34;106945;1275;22523;-75
2023/05/23 11:43:52;;;;;;;4.20;2.40;;;;;;;16.27;70.67;95379.85;106699;1275;25516;-75